»·PEaware :: N921VN KWJF-49X

N921VN :: KWJF-49X

FLIGHT INFORMATION

Flight Status: Arrived
Operator: Privately registered:
United States
More flights under this callsign
Pilot: Kevin M. (7)
Aircraft: BEECH AIRCRAFT BARON
(BE58)
More flights by this aircraft type
Origin: KWJF Gen Fox
United States
Destination: 49X Chemehuevi Valley
United States
More flights between these airports :: More routes between these airports
Route: +PMD V12 HEC V12 EED
File this flight plan on PilotEdge
Remarks: alphabet challenge leg 23
Altitude:
(Current/Filed)
13,000ft
Speed:
(Current/Filed)
150kts
Departed: 14-Jan-20 05:03 PM
Arrived: 14-Jan-20 06:02 PM
Distance/Time
Traveled:
187nm/0:59
Distance/Time
To Go:
Arrived

Flight Plot

Page will automatically refresh every two minutes.


Map Options




Map Legend


Flown Route
Filed Route
Departure Airport
Arrival Airport
Navaid (VOR, NDB)
Fix

Horizontal Profiles

Position Reports

Time Latitude Longitude Heading Altitude Ground
Speed
14-Jan-20 16:53 34.739070 -118.217232 254 2343ft 0kts
14-Jan-20 16:54 34.739070 -118.217232 254 2343ft 0kts
14-Jan-20 16:55 34.739231 -118.217444 349 2344ft 6kts
14-Jan-20 16:56 34.739713 -118.217776 316 2344ft 0kts
14-Jan-20 16:57 34.739713 -118.217776 316 2344ft 0kts
14-Jan-20 16:58 34.739713 -118.217776 316 2344ft 0kts
14-Jan-20 16:59 34.739752 -118.217822 315 2344ft 1kts
14-Jan-20 17:00 34.741431 -118.213522 72 2340ft 26kts
14-Jan-20 17:01 34.743247 -118.207122 21 2336ft 11kts
14-Jan-20 17:02 34.741604 -118.216240 255 2575ft 85kts
14-Jan-20 17:03 34.723247 -118.200178 104 4110ft 143kts
14-Jan-20 17:04 34.705323 -118.153229 142 5284ft 162kts
14-Jan-20 17:05 34.675279 -118.109817 129 6389ft 172kts
14-Jan-20 17:06 34.658503 -118.057347 79 7484ft 173kts
14-Jan-20 17:07 34.665111 -117.999524 79 8576ft 172kts
14-Jan-20 17:08 34.670825 -117.942262 79 9670ft 169kts
14-Jan-20 17:09 34.676231 -117.884706 79 10581ft 173kts
14-Jan-20 17:10 34.681566 -117.826485 79 11482ft 172kts
14-Jan-20 17:11 34.686759 -117.769108 79 12380ft 169kts
14-Jan-20 17:12 34.691832 -117.712739 79 13202ft 172kts
14-Jan-20 17:13 34.697811 -117.645812 80 13004ft 209kts
14-Jan-20 17:14 34.704137 -117.574623 80 13011ft 213kts
14-Jan-20 17:15 34.710402 -117.502838 81 13012ft 214kts
14-Jan-20 17:16 34.716707 -117.431018 80 13012ft 214kts
14-Jan-20 17:17 34.722915 -117.358859 80 13013ft 214kts
14-Jan-20 17:18 34.728970 -117.286874 81 13005ft 213kts
14-Jan-20 17:19 34.735034 -117.215239 81 13004ft 213kts
14-Jan-20 17:20 34.741139 -117.143379 81 13000ft 213kts
14-Jan-20 17:21 34.747184 -117.072191 81 13053ft 211kts
14-Jan-20 17:22 34.753180 -117.001001 82 13037ft 211kts
14-Jan-20 17:23 34.758151 -116.930194 87 13022ft 209kts
14-Jan-20 17:24 34.759865 -116.859616 88 13009ft 207kts
14-Jan-20 17:25 34.760923 -116.789719 88 13010ft 206kts
14-Jan-20 17:26 34.761782 -116.720222 88 13010ft 205kts
14-Jan-20 17:27 34.762491 -116.650685 88 13011ft 206kts
14-Jan-20 17:28 34.763173 -116.580995 88 13011ft 206kts
14-Jan-20 17:29 34.763842 -116.511311 88 13011ft 206kts
14-Jan-20 17:30 34.764474 -116.441452 88 13011ft 206kts
14-Jan-20 17:31 34.765083 -116.371811 88 13017ft 206kts
14-Jan-20 17:32 34.765555 -116.302125 89 13034ft 205kts
14-Jan-20 17:33 34.765996 -116.232872 89 13056ft 204kts
14-Jan-20 17:34 34.766472 -116.163778 89 13077ft 204kts
14-Jan-20 17:35 34.766939 -116.094445 89 13082ft 205kts
14-Jan-20 17:36 34.767364 -116.024908 89 13082ft 205kts
14-Jan-20 17:37 34.767739 -115.955175 89 13082ft 205kts
14-Jan-20 17:38 34.768078 -115.885488 89 13082ft 205kts
14-Jan-20 17:39 34.768376 -115.816005 89 13082ft 205kts
14-Jan-20 17:40 34.768634 -115.746412 89 13083ft 206kts
14-Jan-20 17:41 34.768783 -115.676654 89 13083ft 206kts
14-Jan-20 17:42 34.768935 -115.606920 89 13062ft 206kts
14-Jan-20 17:43 34.769062 -115.536861 89 13038ft 207kts
14-Jan-20 17:44 34.769169 -115.466904 89 13015ft 207kts
14-Jan-20 17:45 34.769154 -115.396811 89 13003ft 207kts
14-Jan-20 17:46 34.767311 -115.327114 108 12922ft 209kts
14-Jan-20 17:47 34.747204 -115.256055 111 12035ft 227kts
14-Jan-20 17:48 34.726358 -115.183292 111 11134ft 228kts
14-Jan-20 17:49 34.706043 -115.110389 111 10233ft 227kts
14-Jan-20 17:50 34.686294 -115.037645 111 9334ft 226kts
14-Jan-20 17:51 34.667018 -114.965041 111 8435ft 224kts
14-Jan-20 17:52 34.648184 -114.892878 111 7537ft 223kts
14-Jan-20 17:53 34.629685 -114.821198 110 6645ft 222kts
14-Jan-20 17:54 34.611405 -114.749782 110 5751ft 220kts
14-Jan-20 17:55 34.594881 -114.683561 110 5911ft 200kts
14-Jan-20 17:56 34.579063 -114.619408 110 5974ft 198kts
14-Jan-20 17:57 34.563353 -114.555377 110 5979ft 197kts
14-Jan-20 17:58 34.548733 -114.499155 107 4693ft 137kts
14-Jan-20 18:00 34.556252 -114.455995 91 2121ft 117kts
14-Jan-20 18:01 34.542968 -114.431992 178 854ft 85kts
14-Jan-20 18:02 34.528885 -114.431208 87 624ft 11kts
14-Jan-20 18:03 34.529038 -114.430541 248 621ft 0kts
14-Jan-20 18:04 34.529038 -114.430541 248 621ft 0kts
14-Jan-20 18:05 34.529038 -114.430541 248 621ft 0kts
14-Jan-20 18:06 34.529038 -114.430541 248 621ft 0kts
14-Jan-20 18:07 34.529038 -114.430541 248 621ft 0kts
14-Jan-20 18:08 34.529038 -114.430541 248 621ft 0kts
14-Jan-20 18:09 34.529038 -114.430541 248 621ft 0kts
14-Jan-20 18:10 34.529038 -114.430541 248 621ft 0kts
14-Jan-20 18:11 34.529038 -114.430541 248 621ft 0kts
14-Jan-20 18:12 34.529038 -114.430541 248 621ft 0kts
14-Jan-20 18:13 34.529038 -114.430541 248 621ft 0kts
14-Jan-20 18:14 34.529038 -114.430541 248 621ft 0kts
14-Jan-20 18:15 34.529038 -114.430541 248 621ft 0kts
14-Jan-20 18:16 34.529038 -114.430541 248 621ft 0kts

Navigation Log

Ident Type
Flight plan parsing failed, navigation log unavailable